Time;durP1;ratioP1;P1;durP2;ratioP2;P2;SDS_P1;SDS_P2;PMS_P1;PMS_P2;Temp;Humidity;BMP_temperature;BMP_pressure;BME280_temperature;BME280_humidity;BME280_pressure;Samples;Min_cycle;Max_cycle;Signal;HPM_P1;HPM_P2
2022/06/09 00:01:11;;;;;;;4.32;1.23;;;;;;;12.67;100.00;95498.78;5051316;28;20045;-77
2022/06/09 00:03:41;;;;;;;;;;;;;;;12.59;100.00;95515.34;5051757;28;20614;-76
2022/06/09 00:06:10;;;;;;;2.65;1.60;;;;;;;12.64;100.00;95513.16;5050963;28;19920;-75
2022/06/09 00:08:40;;;;;;;2.03;1.27;;;;;;;12.59;100.00;95507.97;5051191;28;20043;-77
2022/06/09 00:11:09;;;;;;;3.05;1.35;;;;;;;12.59;100.00;95509.91;5050810;28;20044;-75
2022/06/09 00:13:38;;;;;;;2.65;1.38;;;;;;;12.66;100.00;95502.66;5051182;28;20045;-77
2022/06/09 00:16:04;;;;;;;1.50;1.25;;;;;;;12.71;100.00;95507.06;5050628;28;20037;-76
2022/06/09 00:18:31;;;;;;;1.45;1.20;;;;;;;12.59;100.00;95507.97;5051106;28;20495;-76
2022/06/09 00:20:57;;;;;;;2.53;1.20;;;;;;;12.57;100.00;95503.97;5051155;28;20040;-76
2022/06/09 00:23:25;;;;;;;2.90;1.48;;;;;;;12.67;100.00;95498.00;5050872;28;20041;-76
2022/06/09 00:25:52;;;;;;;3.45;1.20;;;;;;;12.71;100.00;95494.22;5051067;28;20041;-77
2022/06/09 00:28:19;;;;;;;2.83;1.40;;;;;;;12.74;100.00;95498.19;5050510;28;20064;-77
2022/06/09 00:30:46;;;;;;;2.42;1.40;;;;;;;12.70;100.00;95498.09;5051114;28;20045;-76
2022/06/09 00:33:12;;;;;;;2.92;1.20;;;;;;;12.73;100.00;95497.38;5050538;28;20049;-76
2022/06/09 00:35:39;;;;;;;6.30;1.50;;;;;;;12.76;100.00;95499.41;5051187;28;20045;-77
2022/06/09 00:38:06;;;;;;;1.48;1.02;;;;;;;12.62;100.00;95495.53;5049976;28;20044;-78
2022/06/09 00:40:34;;;;;;;2.90;1.23;;;;;;;12.69;100.00;95496.50;5051224;28;20052;-77
2022/06/09 00:43:01;;;;;;;2.28;1.20;;;;;;;12.66;100.00;95497.19;5050782;28;20048;-76
2022/06/09 00:45:31;;;;;;;1.80;1.13;;;;;;;12.61;100.00;95494.72;5050764;28;20041;-77
2022/06/09 00:48:19;;;;;;;3.50;1.30;;;;;;;12.55;100.00;95501.59;5051021;28;20048;-77
2022/06/09 00:50:48;;;;;;;2.88;1.30;;;;;;;12.63;100.00;95499.84;5050577;28;20108;-76
2022/06/09 00:53:19;;;;;;;3.03;1.30;;;;;;;12.54;100.00;95495.34;5050333;28;20055;-77
2022/06/09 00:55:48;;;;;;;3.13;1.33;;;;;;;12.51;100.00;95500.72;5050736;28;20554;-76
2022/06/09 00:58:18;;;;;;;3.10;1.20;;;;;;;12.52;100.00;95503.09;5050077;28;20048;-76
2022/06/09 01:00:50;;;;;;;4.70;1.88;;;;;;;12.62;100.00;95496.31;5050774;28;20132;-77
2022/06/09 01:03:20;;;;;;;2.88;1.30;;;;;;;12.60;100.00;95497.81;5049935;28;20088;-76
2022/06/09 01:05:52;;;;;;;4.35;1.50;;;;;;;12.53;100.00;95499.22;5050305;28;20503;-76
2022/06/09 01:08:18;;;;;;;1.80;1.45;;;;;;;12.54;100.00;95505.47;5049438;28;20041;-77
2022/06/09 01:10:46;;;;;;;1.70;1.40;;;;;;;12.68;100.00;95497.63;5050447;28;20554;-76
2022/06/09 01:13:13;;;;;;;2.95;1.40;;;;;;;12.82;100.00;95499.16;5049835;28;20056;-76
2022/06/09 01:16:00;;;;;;;4.05;1.67;;;;;;;12.82;100.00;95499.16;5050220;28;20136;-76
2022/06/09 01:18:36;;;;;;;3.33;1.60;;;;;;;12.83;100.00;95490.59;5049909;28;20493;-76
2022/06/09 01:21:10;;;;;;;3.03;1.60;;;;;;;12.76;100.00;95493.94;5049748;28;20044;-76
2022/06/09 01:24:02;;;;;;;2.67;1.50;;;;;;;12.77;100.00;95494.72;5049715;28;20052;-77
2022/06/09 01:26:43;;;;;;;3.03;1.65;;;;;;;12.75;100.00;95488.84;5050018;28;20047;-77
2022/06/09 01:29:27;;;;;;;3.25;1.60;;;;;;;12.76;100.00;95485.75;5049651;28;20073;-76
2022/06/09 01:32:00;;;;;;;3.90;1.70;;;;;;;12.70;100.00;95487.16;5050095;28;20408;-75
2022/06/09 01:34:34;;;;;;;4.13;1.80;;;;;;;12.68;100.00;95492.16;5049821;28;20044;-76
2022/06/09 01:37:08;;;;;;;3.22;1.75;;;;;;;12.65;100.00;95486.63;5050005;28;20041;-78
2022/06/09 01:39:46;;;;;;;6.03;1.80;;;;;;;12.59;100.00;95486.09;5049353;28;20099;-76
2022/06/09 01:42:35;;;;;;;3.53;1.60;;;;;;;12.56;100.00;95481.34;5049651;28;20041;-76
2022/06/09 01:45:08;;;;;;;3.55;2.30;;;;;;;12.59;100.00;95485.31;5043783;28;20052;-76
2022/06/09 01:47:42;;;;;;;8.32;2.42;;;;;;;12.61;100.00;95483.81;5049879;28;20099;-76
2022/06/09 01:50:12;;;;;;;4.03;2.05;;;;;;;12.68;100.00;95483.19;5049364;28;20574;-77
2022/06/09 01:52:42;;;;;;;4.18;2.00;;;;;;;12.62;100.00;95484.59;5049867;28;20049;-76
2022/06/09 01:55:13;;;;;;;2.78;2.00;;;;;;;12.56;100.00;95475.88;5049211;28;20144;-78
2022/06/09 01:57:42;;;;;;;5.50;2.33;;;;;;;12.64;100.00;95474.13;5050001;28;20052;-78
2022/06/09 02:00:12;;;;;;;4.00;2.17;;;;;;;12.72;100.00;95462.22;5049129;28;20496;-78
2022/06/09 02:02:45;;;;;;;4.25;2.50;;;;;;;12.79;100.00;95468.66;5049477;28;20052;-77
2022/06/09 02:05:15;;;;;;;3.63;2.70;;;;;;;12.93;100.00;95472.88;5049295;28;20126;-77
2022/06/09 02:07:44;;;;;;;5.93;2.90;;;;;;;12.91;100.00;95467.75;5045973;28;20052;-78
2022/06/09 02:10:21;;;;;;;4.47;2.70;;;;;;;12.86;100.00;95468.03;5051370;28;20440;-79
2022/06/09 02:12:49;;;;;;;4.15;2.85;;;;;;;13.00;100.00;95470.31;5046783;28;20052;-77
2022/06/09 02:15:22;;;;;;;5.40;2.92;;;;;;;13.03;100.00;95480.53;5052860;28;20072;-78
2022/06/09 02:17:52;;;;;;;5.18;2.90;;;;;;;13.07;100.00;95473.22;5053895;28;20049;-78
2022/06/09 02:20:21;;;;;;;4.63;3.20;;;;;;;13.14;100.00;95478.84;5052909;28;20132;-78
2022/06/09 02:22:48;;;;;;;6.28;2.60;;;;;;;13.17;100.00;95478.13;5053592;28;20507;-78
2022/06/09 02:25:14;;;;;;;6.13;3.40;;;;;;;13.20;100.00;95482.06;5052756;28;20045;-78
2022/06/09 02:27:41;;;;;;;3.92;2.78;;;;;;;13.29;100.00;95474.50;5053506;28;20488;-78
2022/06/09 02:30:09;;;;;;;4.53;3.03;;;;;;;13.27;100.00;95485.81;5052886;28;20041;-79
2022/06/09 02:32:36;;;;;;;4.03;2.80;;;;;;;13.21;100.00;95484.50;5053563;28;20045;-78
2022/06/09 02:35:04;;;;;;;5.07;3.15;;;;;;;13.22;100.00;95483.34;5052770;28;20393;-78
2022/06/09 02:37:30;;;;;;;6.93;3.10;;;;;;;13.32;100.00;95485.53;5053257;28;20404;-78
2022/06/09 02:39:57;;;;;;;7.93;3.40;;;;;;;13.35;100.00;95494.16;5053008;28;20044;-78
2022/06/09 02:42:23;;;;;;;7.25;3.28;;;;;;;13.39;100.00;95492.31;5052556;28;20052;-78
2022/06/09 02:44:51;;;;;;;6.75;3.00;;;;;;;13.43;100.00;95493.19;5052475;28;20048;-78
2022/06/09 02:47:18;;;;;;;5.85;3.10;;;;;;;13.48;100.00;95504.63;5052476;28;20525;-78
2022/06/09 02:49:45;;;;;;;6.38;3.00;;;;;;;13.50;100.00;95528.88;5052659;28;20045;-75
2022/06/09 02:52:12;;;;;;;5.30;2.95;;;;;;;13.49;100.00;95532.78;5052500;28;20486;-79
2022/06/09 02:54:39;;;;;;;4.80;2.83;;;;;;;13.54;100.00;95518.84;5052880;28;20045;-79
2022/06/09 02:57:06;;;;;;;6.93;3.58;;;;;;;13.44;100.00;95538.53;5052407;28;20037;-76
2022/06/09 02:59:32;;;;;;;6.47;3.13;;;;;;;13.32;100.00;95551.16;5052686;28;20416;-76
2022/06/09 03:02:01;;;;;;;8.82;3.03;;;;;;;13.31;100.00;95544.13;5052788;28;20411;-76
2022/06/09 03:04:27;;;;;;;6.38;3.08;;;;;;;13.29;100.00;95538.19;5052366;28;20095;-76
2022/06/09 03:06:54;;;;;;;5.68;3.00;;;;;;;13.36;100.00;95545.75;5052803;28;20048;-76
2022/06/09 03:09:22;;;;;;;3.35;2.38;;;;;;;13.29;100.00;95549.13;5052274;28;20053;-77
2022/06/09 03:11:48;;;;;;;5.55;2.85;;;;;;;13.30;100.00;95564.38;5052686;28;20057;-77
2022/06/09 03:14:15;;;;;;;5.22;2.40;;;;;;;13.27;100.00;95591.66;5048233;28;20048;-77
2022/06/09 03:16:41;;;;;;;4.15;2.10;;;;;;;13.28;100.00;95593.22;5052267;28;20087;-76
2022/06/09 03:19:08;;;;;;;5.57;2.60;;;;;;;13.16;100.00;95593.31;5051856;28;20052;-77
2022/06/09 03:21:34;;;;;;;4.53;2.15;;;;;;;13.11;100.00;95605.28;5051400;28;20048;-79
2022/06/09 03:24:01;;;;;;;3.85;2.10;;;;;;;13.14;100.00;95615.50;5052457;28;20055;-78
2022/06/09 03:26:28;;;;;;;4.65;2.15;;;;;;;13.21;100.00;95610.25;5052036;28;20044;-76
2022/06/09 03:28:55;;;;;;;3.22;2.13;;;;;;;13.05;100.00;95634.03;5052457;28;20048;-77
2022/06/09 03:31:21;;;;;;;5.82;2.15;;;;;;;13.15;100.00;95644.44;5051758;28;20056;-78
2022/06/09 03:33:49;;;;;;;2.97;1.80;;;;;;;13.25;100.00;95643.94;5052321;28;20045;-77
2022/06/09 03:36:16;;;;;;;5.45;1.65;;;;;;;13.26;100.00;95640.06;5051921;28;20136;-76
2022/06/09 03:38:42;;;;;;;4.90;2.10;;;;;;;13.17;100.00;95666.75;5052112;28;20052;-76
2022/06/09 03:41:09;;;;;;;2.13;1.60;;;;;;;13.15;100.00;95665.50;5051574;28;20049;-76
2022/06/09 03:43:36;;;;;;;3.10;1.80;;;;;;;13.17;100.00;95668.69;5051631;28;20053;-77
2022/06/09 03:46:04;;;;;;;5.65;2.05;;;;;;;13.15;100.00;95665.50;5051497;28;20416;-80
2022/06/09 03:48:31;;;;;;;3.58;1.73;;;;;;;13.13;100.00;95671.31;5052050;28;20131;-76
2022/06/09 03:50:57;;;;;;;6.28;1.88;;;;;;;13.13;100.00;95673.28;5052002;28;20044;-77
2022/06/09 03:53:24;;;;;;;2.72;1.83;;;;;;;13.17;100.00;95668.69;5051495;28;20455;-77
2022/06/09 03:55:50;;;;;;;3.03;1.63;;;;;;;13.09;100.00;95673.16;5051638;28;20041;-77
2022/06/09 03:58:17;;;;;;;6.80;2.17;;;;;;;13.14;100.00;95675.66;5051243;28;20049;-77
2022/06/09 04:00:44;;;;;;;3.40;1.73;;;;;;;13.09;100.00;95686.03;5051823;28;20052;-77
2022/06/09 04:03:11;;;;;;;2.75;1.90;;;;;;;13.09;100.00;95689.56;5051066;28;20060;-76
2022/06/09 04:05:38;;;;;;;4.00;1.75;;;;;;;13.06;100.00;95690.28;5051654;28;20053;-77
2022/06/09 04:08:05;;;;;;;2.85;2.00;;;;;;;13.08;100.00;95693.44;5051224;28;20051;-76
2022/06/09 04:10:34;;;;;;;3.25;1.80;;;;;;;13.13;100.00;95698.66;5051646;28;20045;-76
2022/06/09 04:13:00;;;;;;;2.13;1.70;;;;;;;13.09;100.00;95695.03;5050989;28;20125;-77
2022/06/09 04:15:27;;;;;;;4.97;1.85;;;;;;;13.07;100.00;95691.88;5051102;28;20045;-76
2022/06/09 04:17:55;;;;;;;3.00;1.88;;;;;;;13.10;100.00;95693.09;5051439;28;20048;-77
2022/06/09 04:20:24;;;;;;;4.22;2.03;;;;;;;13.09;100.00;95691.50;5050995;28;20450;-77
2022/06/09 04:22:51;;;;;;;2.75;1.60;;;;;;;13.12;100.00;95688.09;5051193;28;20065;-76
2022/06/09 04:25:19;;;;;;;2.05;1.40;;;;;;;13.09;100.00;95694.25;5050544;28;20431;-76
2022/06/09 04:27:45;;;;;;;3.17;1.80;;;;;;;13.03;100.00;95696.44;5051156;28;20044;-76
2022/06/09 04:30:13;;;;;;;3.20;1.75;;;;;;;13.11;100.00;95694.69;5050907;28;20048;-76
2022/06/09 04:32:40;;;;;;;2.67;1.90;;;;;;;13.14;100.00;95692.03;5050847;28;20037;-77
2022/06/09 04:35:09;;;;;;;3.65;1.67;;;;;;;13.20;100.00;95695.31;5050869;28;20037;-77
2022/06/09 04:40:16;;;;;;;6.28;2.55;;;;;;;13.26;100.00;95700.22;5049681;28;20133;-78
2022/06/09 04:42:42;;;;;;;4.60;2.28;;;;;;;13.28;100.00;95703.38;5050655;28;20507;-75
2022/06/09 04:45:10;;;;;;;4.18;2.53;;;;;;;13.14;100.00;95708.44;5050288;28;20045;-76
2022/06/09 04:47:36;;;;;;;5.57;2.20;;;;;;;13.22;100.00;95710.28;5050374;28;20045;-76
2022/06/09 04:50:04;;;;;;;3.58;2.00;;;;;;;13.28;100.00;95714.31;5050088;28;20064;-77
2022/06/09 04:52:32;;;;;;;4.22;2.40;;;;;;;13.38;100.00;95717.69;5050828;28;20048;-76
2022/06/09 04:54:59;;;;;;;3.80;2.40;;;;;;;13.29;100.00;95724.13;5050723;28;20087;-77
2022/06/09 04:57:25;;;;;;;4.32;2.35;;;;;;;13.30;100.00;95725.69;5050388;28;20056;-78
2022/06/09 04:59:51;;;;;;;4.20;2.13;;;;;;;13.36;100.00;95730.91;5050738;28;20053;-76
2022/06/09 05:02:18;;;;;;;3.80;2.40;;;;;;;13.42;100.00;95729.53;5050243;28;20102;-76
2022/06/09 05:04:45;;;;;;;4.10;2.33;;;;;;;13.39;100.00;95722.03;5050348;28;20053;-75
2022/06/09 05:07:11;;;;;;;3.42;2.75;;;;;;;13.28;100.00;95725.25;5050040;28;20504;-76
2022/06/09 05:09:39;;;;;;;4.85;2.58;;;;;;;13.23;100.00;95722.78;5050370;28;20049;-76
2022/06/09 05:12:05;;;;;;;6.80;2.50;;;;;;;13.29;100.00;95732.31;5049995;28;20045;-76
2022/06/09 05:14:32;;;;;;;5.18;2.78;;;;;;;13.19;100.00;95732.78;5050199;28;20569;-76
2022/06/09 05:16:58;;;;;;;3.78;2.58;;;;;;;13.14;100.00;95735.78;5050011;28;20037;-76
2022/06/09 05:19:25;;;;;;;4.32;2.70;;;;;;;13.07;100.00;95741.06;5049828;28;20033;-77
2022/06/09 05:21:52;;;;;;;7.13;2.92;;;;;;;13.10;100.00;95740.34;5049845;28;20044;-76
2022/06/09 05:24:19;;;;;;;10.93;3.00;;;;;;;13.07;100.00;95746.53;5049867;28;20041;-76
2022/06/09 05:26:46;;;;;;;5.63;3.13;;;;;;;13.19;100.00;95748.41;5050010;28;20041;-76
2022/06/09 05:29:13;;;;;;;4.88;3.03;;;;;;;13.23;100.00;95741.13;5049895;28;20052;-78
2022/06/09 05:31:40;;;;;;;3.97;3.15;;;;;;;13.15;100.00;95753.75;5050276;28;20107;-76
2022/06/09 05:34:06;;;;;;;6.68;2.97;;;;;;;13.02;100.00;95747.56;5049744;28;20052;-77
2022/06/09 05:36:35;;;;;;;5.53;3.13;;;;;;;13.14;100.00;95746.72;5050249;28;20041;-78
2022/06/09 05:47:16;;;;;;;7.35;2.90;;;;;;;12.94;100.00;95753.19;5068119;28;20524;-82
2022/06/09 05:49:44;;;;;;;5.05;2.97;;;;;;;13.03;100.00;95756.56;5066384;28;20108;-82
2022/06/09 05:52:11;;;;;;;5.85;3.75;;;;;;;13.13;100.00;95753.34;5050618;28;20060;-78
2022/06/09 05:54:37;;;;;;;5.65;3.38;;;;;;;13.09;100.00;95762.56;5049873;28;20052;-79
2022/06/09 05:57:06;;;;;;;8.88;2.83;;;;;;;13.05;100.00;95759.75;5049433;28;20041;-78
2022/06/09 05:59:32;;;;;;;5.85;2.88;;;;;;;13.03;100.00;95768.28;5050000;28;20056;-79
2022/06/09 06:01:59;;;;;;;6.80;3.65;;;;;;;13.13;100.00;95767.00;5049954;28;20067;-78
2022/06/09 06:04:25;;;;;;;5.40;3.13;;;;;;;13.18;100.00;95765.97;5049465;28;20455;-80
2022/06/09 06:06:52;;;;;;;6.20;3.47;;;;;;;13.01;100.00;95780.72;5049823;28;20041;-78
2022/06/09 06:09:22;;;;;;;8.32;4.15;;;;;;;13.06;100.00;95783.22;5049369;28;20052;-78
2022/06/09 06:11:49;;;;;;;4.82;3.90;;;;;;;13.09;100.00;95792.66;5049884;28;20068;-76
2022/06/09 06:14:18;;;;;;;5.10;3.67;;;;;;;13.27;100.00;95772.91;5047290;28;20045;-79
2022/06/09 06:16:45;;;;;;;6.00;3.72;;;;;;;13.34;100.00;95791.44;5050124;28;20052;-79
2022/06/09 06:19:17;;;;;;;6.20;3.70;;;;;;;13.31;100.00;95801.13;5049056;28;20465;-80
2022/06/09 06:21:45;;;;;;;4.93;3.70;;;;;;;13.35;100.00;95794.97;5050048;28;20051;-79
2022/06/09 06:24:13;;;;;;;5.63;3.78;;;;;;;13.42;99.56;95822.53;5049260;28;20043;-79
2022/06/09 06:26:39;;;;;;;6.85;3.47;;;;;;;13.51;99.32;95812.19;5049750;28;20041;-79
2022/06/09 06:29:08;;;;;;;4.93;3.15;;;;;;;13.61;100.00;95806.22;5049087;28;20500;-79
2022/06/09 06:31:36;;;;;;;4.38;3.28;;;;;;;13.51;97.64;95828.59;5049407;28;20047;-79
2022/06/09 06:34:03;;;;;;;4.78;2.72;;;;;;;13.62;99.12;95816.00;5049182;28;20095;-79
2022/06/09 06:36:30;;;;;;;4.78;2.80;;;;;;;13.63;97.82;95834.03;5049561;28;20404;-79
2022/06/09 06:38:57;;;;;;;3.53;2.42;;;;;;;13.76;98.65;95830.06;5049403;28;20107;-78
2022/06/09 06:41:23;;;;;;;5.55;2.58;;;;;;;13.59;96.90;95833.13;5049208;28;20069;-79
2022/06/09 06:43:50;;;;;;;3.70;2.53;;;;;;;13.56;97.10;95833.81;5049137;28;20041;-80
2022/06/09 06:46:17;;;;;;;3.80;2.65;;;;;;;13.56;96.62;95842.81;5048830;28;20041;-79
2022/06/09 06:48:46;;;;;;;4.40;2.70;;;;;;;13.70;96.85;95849.84;5049298;28;20550;-79
2022/06/09 06:51:13;;;;;;;4.03;2.30;;;;;;;13.80;98.64;95833.69;5049235;28;20053;-79
2022/06/09 06:53:40;;;;;;;5.20;2.30;;;;;;;13.76;97.48;95849.22;5049487;28;20124;-79
2022/06/09 06:56:07;;;;;;;3.15;2.10;;;;;;;13.73;97.50;95844.47;5051014;28;20053;-77
2022/06/09 06:58:34;;;;;;;5.07;2.22;;;;;;;13.76;96.70;95851.97;5053347;28;20049;-78
2022/06/09 07:01:01;;;;;;;4.97;1.80;;;;;;;13.67;93.85;95870.47;5052962;28;20098;-78
2022/06/09 07:03:29;;;;;;;7.97;5.63;;;;;;;13.79;94.57;95864.97;5052983;28;20045;-79
2022/06/09 07:05:57;;;;;;;5.22;1.58;;;;;;;13.73;93.24;95877.31;5052734;28;20626;-79
2022/06/09 07:08:24;;;;;;;3.50;1.58;;;;;;;13.81;94.31;95868.13;5052460;28;20041;-79
2022/06/09 07:10:52;;;;;;;2.67;1.90;;;;;;;13.81;93.37;95876.34;5052899;28;20524;-79
2022/06/09 07:13:18;;;;;;;3.03;1.77;;;;;;;13.89;92.93;95884.75;5052291;28;20049;-78
2022/06/09 07:15:45;;;;;;;4.20;1.70;;;;;;;13.95;93.24;95875.94;5052107;28;20056;-79
2022/06/09 07:18:12;;;;;;;2.83;1.73;;;;;;;14.19;90.89;95891.41;5052191;28;20456;-80
2022/06/09 07:20:40;;;;;;;3.92;1.70;;;;;;;14.16;90.75;95889.38;5052720;28;20041;-78
2022/06/09 07:23:09;;;;;;;2.95;1.90;;;;;;;14.02;92.94;95889.78;5051912;28;20052;-79
2022/06/09 07:25:36;;;;;;;5.28;2.22;;;;;;;13.98;94.44;95888.91;5052581;28;20057;-78
2022/06/09 07:28:02;;;;;;;3.50;2.00;;;;;;;14.07;93.40;95892.28;5051908;28;20891;-78
2022/06/09 07:30:29;;;;;;;6.05;2.17;;;;;;;14.00;91.94;95897.56;5052625;28;20053;-79
2022/06/09 07:32:56;;;;;;;3.55;2.47;;;;;;;13.96;91.77;95904.09;5052664;28;20033;-79
2022/06/09 07:35:26;;;;;;;4.30;2.70;;;;;;;13.91;92.57;95899.66;5051968;28;20045;-79
2022/06/09 07:37:53;;;;;;;3.28;2.30;;;;;;;13.86;92.94;95901.88;5052392;28;20064;-78
2022/06/09 07:40:21;;;;;;;3.55;2.53;;;;;;;13.92;94.77;95894.97;5051846;28;20045;-79
2022/06/09 07:42:48;;;;;;;5.43;2.60;;;;;;;14.08;94.88;95888.38;5052198;28;20071;-79
2022/06/09 07:45:16;;;;;;;3.50;2.45;;;;;;;14.07;92.39;95899.69;5051795;28;20444;-78
2022/06/09 07:47:42;;;;;;;4.30;2.80;;;;;;;14.03;90.92;95904.28;5052211;28;20053;-78
2022/06/09 07:50:10;;;;;;;5.00;2.28;;;;;;;14.12;90.35;95913.13;5051669;28;20060;-79
2022/06/09 07:52:40;;;;;;;7.60;2.97;;;;;;;14.16;88.78;95915.97;5052045;28;20492;-79
2022/06/09 07:55:07;;;;;;;5.03;2.53;;;;;;;14.31;90.05;95923.41;5051457;28;20052;-78
2022/06/09 07:57:35;;;;;;;4.45;2.42;;;;;;;14.43;90.76;95917.03;5051991;28;20041;-79
2022/06/09 08:00:03;;;;;;;5.82;2.50;;;;;;;14.52;90.56;95918.50;5051539;28;20044;-76
2022/06/09 08:02:30;;;;;;;4.15;2.08;;;;;;;14.51;89.32;95921.56;5051998;28;20044;-81
2022/06/09 08:04:56;;;;;;;6.93;2.10;;;;;;;14.74;89.62;95924.50;5051710;28;20041;-79
2022/06/09 08:07:23;;;;;;;2.92;2.00;;;;;;;14.63;86.95;95929.72;5050543;28;20051;-79
2022/06/09 08:09:49;;;;;;;3.90;2.50;;;;;;;14.66;86.07;95929.00;5051556;28;20051;-79
2022/06/09 08:12:16;;;;;;;6.97;2.67;;;;;;;14.77;86.36;95935.53;5051140;28;20492;-78
2022/06/09 08:14:44;;;;;;;4.72;2.40;;;;;;;14.95;86.93;95935.16;5051805;28;20049;-80
2022/06/09 08:17:11;;;;;;;5.68;2.38;;;;;;;14.99;86.62;95930.56;5050971;28;20593;-79
2022/06/09 08:19:38;;;;;;;7.13;2.58;;;;;;;14.95;86.73;95940.66;5051708;28;20033;-79
2022/06/09 08:22:04;;;;;;;5.93;2.40;;;;;;;14.97;87.91;95938.34;5050765;28;20036;-79
2022/06/09 08:24:33;;;;;;;4.15;2.50;;;;;;;14.80;84.38;95940.31;5051528;28;20045;-78
2022/06/09 08:26:59;;;;;;;3.97;2.20;;;;;;;14.90;87.00;95938.19;5051201;28;20499;-78
2022/06/09 08:29:26;;;;;;;4.15;2.25;;;;;;;15.00;86.15;95938.44;5051043;28;20510;-78
2022/06/09 08:31:54;;;;;;;6.30;2.67;;;;;;;14.87;86.84;95943.19;5051363;28;20048;-79
2022/06/09 08:34:21;;;;;;;4.30;2.35;;;;;;;14.91;85.82;95948.78;5050881;28;20049;-79
2022/06/09 08:36:47;;;;;;;4.30;2.60;;;;;;;14.95;84.50;95943.38;5051310;28;20055;-78
2022/06/09 08:39:14;;;;;;;5.28;2.30;;;;;;;14.95;84.32;95948.88;5050835;28;20041;-79
2022/06/09 08:41:53;;;;;;;5.78;2.72;;;;;;;14.86;84.24;95944.34;5051118;28;20048;-79
2022/06/09 08:44:28;;;;;;;6.90;2.78;;;;;;;14.75;85.12;95943.31;5050764;28;20045;-78
2022/06/09 08:47:06;;;;;;;6.97;2.50;;;;;;;14.83;85.70;95945.09;5051335;28;20053;-78
2022/06/09 08:49:41;;;;;;;6.07;2.40;;;;;;;14.81;84.27;95958.34;5050725;28;20542;-80
2022/06/09 08:52:18;;;;;;;8.55;2.85;;;;;;;14.62;85.06;95950.06;5050377;28;20048;-78
2022/06/09 08:54:47;;;;;;;7.68;3.17;;;;;;;14.68;84.98;95959.59;5050895;28;20040;-78
2022/06/09 08:57:18;;;;;;;4.95;2.65;;;;;;;14.70;84.74;95956.50;5050429;28;20496;-78
2022/06/09 08:59:59;;;;;;;7.20;3.03;;;;;;;14.67;85.35;95955.25;5050856;28;20049;-79
2022/06/09 09:02:35;;;;;;;8.20;2.55;;;;;;;14.76;84.52;95966.03;5050438;28;20045;-78
2022/06/09 09:05:13;;;;;;;6.80;2.30;;;;;;;14.74;84.77;95969.13;5050252;28;20492;-78
2022/06/09 09:07:43;;;;;;;9.15;2.80;;;;;;;14.64;86.72;95963.38;5050705;28;20381;-78
2022/06/09 09:10:17;;;;;;;6.90;2.50;;;;;;;14.58;87.51;95976.56;5050225;28;20053;-78
2022/06/09 09:12:55;;;;;;;6.75;2.50;;;;;;;14.64;88.47;95974.34;5050645;28;20052;-78
2022/06/09 09:15:27;;;;;;;12.23;3.70;;;;;;;14.51;87.67;95981.84;5050245;28;20057;-79
2022/06/09 09:18:05;;;;;;;6.23;2.60;;;;;;;14.51;88.94;95990.06;5050553;28;20095;-78
2022/06/09 09:20:36;;;;;;;5.65;2.47;;;;;;;14.55;87.69;95989.00;5039201;28;20280;-78
2022/06/09 09:23:07;;;;;;;4.75;2.53;;;;;;;14.72;88.92;95993.38;5050327;28;20120;-78
2022/06/09 09:25:44;;;;;;;5.80;2.28;;;;;;;14.55;89.44;95993.69;5051031;28;20507;-78
2022/06/09 09:28:17;;;;;;;6.53;2.35;;;;;;;14.64;89.36;95997.06;5051209;28;20048;-78
2022/06/09 09:30:57;;;;;;;10.63;2.80;;;;;;;14.56;90.97;96000.75;5050849;28;20049;-78
2022/06/09 09:33:25;;;;;;;5.70;3.05;;;;;;;14.46;91.20;95998.50;5050262;28;20045;-79
2022/06/09 09:35:55;;;;;;;8.75;3.40;;;;;;;14.56;90.48;96000.75;5050652;28;20045;-78
2022/06/09 09:38:26;;;;;;;4.82;2.80;;;;;;;14.75;89.68;96000.88;5051180;28;20049;-79
2022/06/09 09:41:00;;;;;;;5.20;2.90;;;;;;;14.84;87.90;96006.97;5050722;28;20069;-80
2022/06/09 09:43:35;;;;;;;6.45;3.17;;;;;;;14.96;87.81;96008.03;5039653;28;20128;-78
2022/06/09 09:46:02;;;;;;;6.03;2.42;;;;;;;15.07;85.72;96009.09;5050731;28;20090;-79
2022/06/09 09:48:34;;;;;;;5.32;2.85;;;;;;;15.17;85.63;96013.25;5050711;28;20044;-79
2022/06/09 09:51:06;;;;;;;5.10;2.90;;;;;;;14.98;85.91;96011.22;5050962;28;20045;-79
2022/06/09 09:53:35;;;;;;;5.40;2.63;;;;;;;15.05;86.35;96011.41;5051445;28;20276;-79
2022/06/09 09:56:05;;;;;;;9.52;3.25;;;;;;;15.13;85.98;96015.88;5019921;28;20535;-77
2022/06/09 09:58:38;;;;;;;5.50;2.85;;;;;;;15.30;85.78;96023.75;5051376;28;20048;-79
2022/06/09 10:01:26;;;;;;;5.15;2.80;;;;;;;15.26;85.07;96022.88;5049204;28;20065;-79
2022/06/09 10:09:33;;;;;;;6.47;2.83;;;;;;;15.36;86.10;96027.03;5050050;28;20074;-78
2022/06/09 10:12:08;;;;;;;4.22;2.58;;;;;;;15.42;85.84;96030.28;5050763;28;20052;-77
2022/06/09 10:14:42;;;;;;;9.43;2.72;;;;;;;15.45;82.59;96035.03;5030745;28;20046;-78
2022/06/09 10:17:28;;;;;;;7.28;2.88;;;;;;;15.51;82.95;96036.38;5029323;28;20059;-78
2022/06/09 10:20:05;;;;;;;4.45;2.50;;;;;;;15.29;81.68;96038.59;5014910;28;20053;-78
2022/06/09 10:22:35;;;;;;;6.22;2.75;;;;;;;15.53;82.80;96047.78;5030891;28;20042;-78
2022/06/09 10:25:09;;;;;;;8.20;2.15;;;;;;;15.65;81.81;96050.44;5030172;28;20049;-75
2022/06/09 10:27:38;;;;;;;6.60;2.13;;;;;;;15.64;82.09;96048.84;5030968;28;20069;-80
2022/06/09 10:30:13;;;;;;;6.18;2.80;;;;;;;15.65;83.13;96056.72;5031125;28;20045;-80
2022/06/09 10:32:51;;;;;;;5.65;2.75;;;;;;;15.78;81.44;96054.66;5034283;28;20042;-79
2022/06/09 10:35:27;;;;;;;5.80;2.67;;;;;;;15.81;82.01;96048.44;5034247;28;20046;-80
2022/06/09 10:37:58;;;;;;;5.93;2.17;;;;;;;15.77;83.43;96042.09;5034970;28;20527;-80
2022/06/09 10:40:32;;;;;;;6.68;2.50;;;;;;;15.94;81.35;96040.88;5034528;28;20039;-80
2022/06/09 10:43:04;;;;;;;5.85;2.15;;;;;;;15.67;78.85;96042.66;5035316;28;20049;-80
2022/06/09 10:45:40;;;;;;;5.00;2.15;;;;;;;15.83;79.85;96037.91;5034059;28;20052;-81
2022/06/09 10:56:58;;;;;;;5.72;2.40;;;;;;;15.78;83.49;96032.69;5033922;28;20052;-78
2022/06/09 10:59:30;;;;;;;5.53;2.40;;;;;;;16.04;84.35;96034.03;5033349;28;20045;-79
2022/06/09 11:01:57;;;;;;;4.72;2.08;;;;;;;16.31;80.69;96033.00;5033311;28;20049;-80
2022/06/09 11:04:24;;;;;;;4.60;2.13;;;;;;;16.32;80.17;96033.81;5033183;28;20045;-79
2022/06/09 11:07:11;;;;;;;3.40;1.98;;;;;;;16.50;79.18;96039.66;5033985;28;20053;-79
2022/06/09 11:09:53;;;;;;;3.65;1.90;;;;;;;16.63;76.89;96032.81;5033219;28;20615;-80
2022/06/09 11:12:29;;;;;;;3.42;1.90;;;;;;;16.69;74.79;96039.59;5034659;28;20049;-79
2022/06/09 11:15:09;;;;;;;3.28;2.00;;;;;;;16.62;74.52;96050.47;5053042;28;20106;-77
2022/06/09 11:17:52;;;;;;;6.18;2.22;;;;;;;16.32;76.83;96045.59;5053061;28;20041;-80
2022/06/09 11:20:35;;;;;;;4.97;2.40;;;;;;;16.12;77.74;96052.22;5052497;28;20044;-79
2022/06/09 11:23:09;;;;;;;;;;;;;;;16.07;73.90;96064.28;5052902;28;20045;-80
2022/06/09 11:25:49;;;;;;;6.05;1.90;;;;;;;15.16;77.78;96067.28;5052652;28;19974;-80
2022/06/09 11:28:35;;;;;;;4.07;1.80;;;;;;;15.06;79.73;96073.31;5052269;28;20049;-79
2022/06/09 11:31:18;;;;;;;5.15;2.03;;;;;;;14.82;80.05;96068.78;5053658;28;20056;-79
2022/06/09 11:33:56;;;;;;;3.10;2.03;;;;;;;14.55;82.37;96075.88;5053081;28;20044;-79
2022/06/09 11:36:33;;;;;;;5.20;2.00;;;;;;;14.27;82.50;96068.47;5052644;28;20045;-80
2022/06/09 11:39:20;;;;;;;5.18;1.98;;;;;;;14.20;85.10;96071.00;5052611;28;20068;-80
2022/06/09 11:41:56;;;;;;;4.35;2.38;;;;;;;14.16;85.66;96059.16;5053104;28;20047;-80
2022/06/09 11:44:27;;;;;;;4.63;2.35;;;;;;;14.35;86.02;96062.03;5055255;28;20044;-81
2022/06/09 11:46:59;;;;;;;4.30;1.70;;;;;;;14.52;81.82;96071.91;5054412;28;20049;-80
2022/06/09 11:49:33;;;;;;;4.97;1.60;;;;;;;14.65;78.57;96075.38;5052805;28;20688;-79
2022/06/09 11:52:03;;;;;;;2.42;1.60;;;;;;;14.79;79.47;96072.22;5032356;28;20102;-80
2022/06/09 11:54:44;;;;;;;3.72;1.65;;;;;;;14.80;78.92;96066.38;5045700;28;20048;-79
2022/06/09 11:57:45;;;;;;;2.20;1.48;;;;;;;14.93;80.02;96082.75;5053048;28;20084;-82
2022/06/09 12:00:37;;;;;;;2.20;1.20;;;;;;;15.13;78.11;96073.47;5052670;28;20041;-80
2022/06/09 12:03:36;;;;;;;2.95;1.50;;;;;;;15.19;78.12;96077.56;5039675;28;20065;-80
2022/06/09 12:06:15;;;;;;;3.13;1.80;;;;;;;15.20;77.87;96081.09;5052499;28;20045;-80
2022/06/09 12:08:53;;;;;;;5.05;2.03;;;;;;;15.20;78.65;96084.66;5052684;28;20064;-79